Pagina principale
METAR-TAF:

METAR-TAF

Aeroporti :

Aeroporto di Lecce-Galatina

Lecce, Italia

latitudine: 40-14N, longitudine: 018-09E, altezza: 48 m

Osservazione

Il bollettino è stato emesso 1 ora e 20 minuti fa, alle 00:55 UTC
Vento 3 kt da est/sud-est
Temperature 17°C
Umidità 94%
Pressione 1017 hPa
Visibilità: 8000 m

METAR: LIBN 160055Z 12003KT 8000 NSC 17/16 Q1017 RMK SKC VIS MIN 8000 WIND THR14 13003KT WIND THR32 12003KT BLU

Ora: 04:15 (02:15 UTC)

Previsione

Il bollettino è stato emesso 12 ore e 15 minuti fa, alle 14:00 UTC
Previsione valida dal 15 alle 15 UTC al 15 alle 24 UTC
Vento 5 kt da sud-ovest
Visibilità 10 km o più
Poco nuvoloso ad un'altezza di 2500 ft
Evoluzione graduale
dal 15 alle 16 UTC al 15 alle 17 UTC
Visibilità 10 km o più
nessuna nube inferiore a 1500 m e nessun cumulonembo

TAF: LIBN 151400Z 1515/1524 23005KT 9999 FEW025 BECMG 1516/1517 CAVOK

Osservazioni e previsioni meteorologiche di più di 4000 aeroporti (messaggi METAR e TAF).

Le stazioni disponibili sono rappresentate dai dischi gialli e rossi sulla carta.

Puntare il mouse per vedere il nome della stazione.

Clicca sopra per visualizzare le osservazioni e previsioni meteorologiche.

Per cambiare la mappa : fare clic sui pulsanti verdi con una croce nera per ingrandire, il pulsante verde con un trattino per diminuire, o sulla freccia verde per le mappe adiacenti.


METAR-TAF: